Time;durP1;ratioP1;P1;durP2;ratioP2;P2;SDS_P1;SDS_P2;PMS_P1;PMS_P2;Temp;Humidity;BMP_temperature;BMP_pressure;BME280_temperature;BME280_humidity;BME280_pressure;Samples;Min_cycle;Max_cycle;Signal;HPM_P1;HPM_P2
2021/05/09 00:01:42;;;;;;;8.65;4.40;;;;;;;5.62;63.81;100274.47;4232815;33;34117;-96
2021/05/09 00:04:34;;;;;;;5.65;4.50;;;;;;;5.62;63.90;100269.12;4185536;33;35494;-96
2021/05/09 00:07:11;;;;;;;6.60;5.03;;;;;;;5.78;62.94;100279.28;4216563;33;32695;-86
2021/05/09 00:09:44;;;;;;;6.90;5.30;;;;;;;5.98;62.59;100277.41;4232402;33;33025;-95
2021/05/09 00:12:17;;;;;;;7.65;5.35;;;;;;;5.60;64.19;100282.66;4217375;33;34383;-86
2021/05/09 00:14:50;;;;;;;7.12;4.87;;;;;;;5.51;64.41;100275.47;4214765;33;34266;-86
2021/05/09 00:17:22;;;;;;;5.80;4.53;;;;;;;5.44;64.46;100275.19;4232734;33;34481;-96
2021/05/09 00:19:57;;;;;;;8.13;5.45;;;;;;;5.27;65.42;100276.75;4209222;33;33498;-96
2021/05/09 00:22:30;;;;;;;8.98;5.20;;;;;;;5.63;63.97;100281.53;4209040;33;34456;-94
2021/05/09 00:25:05;;;;;;;7.55;4.95;;;;;;;5.46;64.38;100285.75;4228543;33;34644;-86
2021/05/09 00:27:39;;;;;;;5.50;4.57;;;;;;;5.72;63.52;100274.47;4233186;33;34344;-86
2021/05/09 00:30:12;;;;;;;5.95;4.70;;;;;;;5.67;63.16;100282.94;4217639;33;33748;-85
2021/05/09 00:32:45;;;;;;;7.82;4.65;;;;;;;5.61;63.19;100278.13;4232059;33;34683;-86
2021/05/09 00:35:18;;;;;;;7.43;5.30;;;;;;;5.24;65.33;100277.03;4231917;33;33646;-95
2021/05/09 00:37:50;;;;;;;6.72;4.32;;;;;;;5.32;64.61;100272.81;4230572;33;34408;-86
2021/05/09 00:40:23;;;;;;;10.30;5.57;;;;;;;5.01;65.12;100275.56;4232651;33;34259;-85
2021/05/09 00:43:11;;;;;;;7.97;5.37;;;;;;;5.38;64.02;100278.44;4230769;33;34391;-96
2021/05/09 00:46:42;;;;;;;8.32;5.70;;;;;;;5.32;64.46;100278.16;4214783;33;35081;-95
2021/05/09 00:49:15;;;;;;;8.02;5.32;;;;;;;4.44;67.46;100283.31;4219471;33;34155;-86
2021/05/09 00:51:58;;;;;;;8.43;5.70;;;;;;;5.10;65.53;100269.38;4223069;33;33636;-85
2021/05/09 00:54:32;;;;;;;7.97;5.55;;;;;;;5.02;65.78;100264.72;4231662;33;33756;-85
2021/05/09 00:57:05;;;;;;;8.05;5.45;;;;;;;4.82;66.56;100271.00;4220289;33;34425;-96
2021/05/09 00:59:39;;;;;;;9.27;5.68;;;;;;;5.39;64.75;100269.41;4209876;33;34410;-96
2021/05/09 01:02:13;;;;;;;8.05;5.95;;;;;;;5.41;64.20;100255.88;4221428;33;33147;-85
2021/05/09 01:04:50;;;;;;;10.18;6.75;;;;;;;5.47;63.63;100258.81;4231977;33;33654;-96
2021/05/09 01:07:50;;;;;;;9.95;5.68;;;;;;;5.09;64.65;100263.19;4225560;33;35908;-96
2021/05/09 01:10:40;;;;;;;8.48;4.72;;;;;;;5.29;64.36;100255.16;4235812;33;36615;-84
2021/05/09 01:13:13;;;;;;;6.97;4.80;;;;;;;5.48;63.56;100263.19;4261482;33;34077;-96
2021/05/09 01:16:02;;;;;;;9.20;6.30;;;;;;;4.89;65.65;100256.94;4222693;33;33802;-95
2021/05/09 01:18:36;;;;;;;9.25;6.32;;;;;;;5.28;64.02;100256.12;4235940;33;34325;-85
2021/05/09 01:21:10;;;;;;;8.52;5.75;;;;;;;5.32;63.92;100256.72;4260858;33;33312;-85
2021/05/09 01:23:43;;;;;;;7.22;5.22;;;;;;;5.50;63.18;100256.84;4247976;33;35274;-85
2021/05/09 01:26:15;;;;;;;7.65;4.97;;;;;;;5.24;64.40;100252.03;4248657;33;33692;-85
2021/05/09 01:28:49;;;;;;;8.77;5.68;;;;;;;5.36;63.88;100245.56;4258879;33;35019;-85
2021/05/09 01:31:23;;;;;;;7.72;4.72;;;;;;;5.10;65.04;100251.50;4249975;33;33947;-86
2021/05/09 01:33:58;;;;;;;8.80;5.28;;;;;;;5.53;63.44;100244.00;4248591;33;34303;-95
2021/05/09 01:36:46;;;;;;;6.75;4.95;;;;;;;5.43;63.55;100248.50;4172163;33;36184;-85
2021/05/09 01:39:19;;;;;;;6.97;5.05;;;;;;;5.40;63.36;100238.06;4260760;33;33590;-84
2021/05/09 01:41:53;;;;;;;7.40;4.78;;;;;;;5.50;63.13;100235.41;4248011;33;34667;-94
2021/05/09 01:44:54;;;;;;;7.70;4.50;;;;;;;5.19;63.80;100246.25;4224570;33;35944;-86
2021/05/09 01:47:27;;;;;;;8.75;5.15;;;;;;;5.39;63.55;100247.09;4236145;33;34137;-85
2021/05/09 01:50:00;;;;;;;7.25;5.28;;;;;;;4.98;65.21;100249.91;4260948;33;34507;-85
2021/05/09 01:52:33;;;;;;;11.70;5.40;;;;;;;5.46;63.62;100249.09;4261540;33;33364;-96
2021/05/09 01:55:24;;;;;;;7.53;5.70;;;;;;;4.95;65.12;100250.19;4248854;33;34124;-95
2021/05/09 01:58:08;;;;;;;8.40;5.20;;;;;;;5.13;64.25;100253.03;4231932;33;34495;-85
2021/05/09 02:00:42;;;;;;;6.53;4.78;;;;;;;4.97;65.39;100253.59;4246638;33;33381;-86
2021/05/09 02:03:15;;;;;;;6.40;4.72;;;;;;;5.01;65.30;100254.97;4261662;33;33561;-85
2021/05/09 02:05:48;;;;;;;7.22;4.87;;;;;;;5.20;65.00;100253.31;4261578;33;34126;-85
2021/05/09 02:08:22;;;;;;;7.05;4.47;;;;;;;5.36;64.58;100252.75;4235743;33;34821;-86
2021/05/09 02:10:55;;;;;;;7.87;5.43;;;;;;;5.51;63.58;100246.00;4259614;33;33880;-86
2021/05/09 02:13:29;;;;;;;6.47;4.35;;;;;;;5.50;63.57;100256.84;4259979;33;34293;-85
2021/05/09 02:16:05;;;;;;;8.00;4.57;;;;;;;5.19;64.41;100251.63;4259840;33;32715;-95
2021/05/09 02:18:37;;;;;;;6.80;4.75;;;;;;;5.22;64.66;100248.66;4258694;33;33816;-84
2021/05/09 02:21:17;;;;;;;6.82;5.00;;;;;;;5.15;64.48;100248.38;4244010;33;34275;-95
2021/05/09 02:24:13;;;;;;;7.00;5.05;;;;;;;5.38;63.43;100250.78;4136947;33;36427;-85
2021/05/09 02:26:46;;;;;;;7.00;4.72;;;;;;;5.18;63.96;100250.78;4246669;33;34782;-95
2021/05/09 02:29:37;;;;;;;9.68;5.03;;;;;;;5.24;63.76;100255.59;4242343;33;37378;-85
2021/05/09 02:32:11;;;;;;;6.68;4.22;;;;;;;4.67;66.25;100258.03;4259151;33;34660;-94
2021/05/09 02:34:44;;;;;;;8.05;4.80;;;;;;;4.51;66.61;100263.06;4236608;33;33764;-85
2021/05/09 02:37:17;;;;;;;8.65;4.85;;;;;;;4.67;66.13;100268.75;4245892;33;33366;-95
2021/05/09 02:40:12;;;;;;;7.90;4.28;;;;;;;4.82;65.88;100255.81;4237619;33;35514;-85
2021/05/09 02:42:46;;;;;;;7.00;4.72;;;;;;;5.18;64.37;100260.63;4260838;33;34781;-85
2021/05/09 02:45:19;;;;;;;8.80;4.53;;;;;;;4.97;64.47;100264.31;4248116;33;33745;-96
2021/05/09 02:48:31;;;;;;;6.30;4.10;;;;;;;4.88;65.17;100271.34;4241764;28;33162;-85
2021/05/09 02:51:04;;;;;;;8.32;4.85;;;;;;;4.93;64.78;100270.91;4246439;33;34567;-96
2021/05/09 02:53:50;;;;;;;10.13;5.05;;;;;;;4.59;65.76;100271.25;4232543;33;32552;-96
2021/05/09 02:56:39;;;;;;;7.78;4.70;;;;;;;4.60;66.64;100279.12;4216244;33;34515;-86
2021/05/09 02:59:11;;;;;;;8.07;5.03;;;;;;;4.86;65.47;100285.84;4245406;33;33364;-85
2021/05/09 03:01:44;;;;;;;9.93;5.55;;;;;;;5.01;64.68;100276.41;4245678;33;33309;-95
2021/05/09 03:04:19;;;;;;;7.78;4.40;;;;;;;4.89;65.41;100277.53;4232512;33;34620;-96
2021/05/09 03:06:54;;;;;;;6.95;4.50;;;;;;;4.80;65.72;100262.28;4240156;33;33859;-95
2021/05/09 03:09:28;;;;;;;9.07;5.45;;;;;;;5.02;64.61;100278.13;4244844;33;33415;-96
2021/05/09 03:12:02;;;;;;;9.63;5.35;;;;;;;4.99;64.29;100288.28;4245507;33;34177;-85
2021/05/09 03:14:34;;;;;;;12.88;5.32;;;;;;;4.86;64.59;100293.88;4248384;33;33852;-85
2021/05/09 03:17:18;;;;;;;11.05;5.65;;;;;;;4.90;64.76;100284.59;4248217;33;33778;-96
2021/05/09 03:19:51;;;;;;;9.88;5.55;;;;;;;4.54;65.82;100294.91;4258461;33;33830;-95
2021/05/09 03:22:44;;;;;;;7.97;4.65;;;;;;;4.48;66.35;100293.59;4240701;33;34239;-95
2021/05/09 03:25:38;;;;;;;11.43;5.28;;;;;;;4.87;65.05;100290.22;4132373;33;35393;-85
2021/05/09 03:28:10;;;;;;;11.50;5.55;;;;;;;4.56;66.00;100295.59;4258517;33;34455;-85
2021/05/09 03:30:43;;;;;;;9.23;5.25;;;;;;;4.89;64.67;100293.59;4235094;33;34454;-96
2021/05/09 03:33:37;;;;;;;9.38;5.37;;;;;;;5.06;63.71;100290.25;4245309;33;36724;-84
2021/05/09 03:36:21;;;;;;;11.43;6.45;;;;;;;4.78;65.09;100298.06;4257307;33;34699;-95
2021/05/09 03:38:55;;;;;;;10.38;5.72;;;;;;;4.82;65.31;100297.81;4235302;33;33874;-85
2021/05/09 03:41:27;;;;;;;13.13;6.50;;;;;;;4.77;65.79;100306.25;4247214;33;33244;-85
2021/05/09 03:44:00;;;;;;;11.27;5.95;;;;;;;4.88;65.40;100303.47;4257832;33;33440;-85
2021/05/09 03:46:33;;;;;;;8.88;5.12;;;;;;;5.22;64.02;100300.41;4246833;33;34652;-85
2021/05/09 03:49:06;;;;;;;11.00;6.30;;;;;;;5.26;63.83;100295.66;4257605;33;33469;-85
2021/05/09 03:51:39;;;;;;;10.07;6.28;;;;;;;4.69;65.96;100306.09;4247603;33;34365;-96
2021/05/09 03:54:24;;;;;;;11.00;6.03;;;;;;;4.68;66.54;100310.59;4198512;34;32833;-85
2021/05/09 03:56:57;;;;;;;8.05;6.22;;;;;;;5.19;64.57;100307.91;4199700;34;34638;-85
2021/05/09 03:59:29;;;;;;;10.07;6.20;;;;;;;5.39;64.19;100306.94;4218507;34;34627;-86
2021/05/09 04:02:03;;;;;;;10.10;6.43;;;;;;;5.49;64.50;100312.28;4228889;33;33249;-86
2021/05/09 04:04:36;;;;;;;8.70;6.10;;;;;;;5.15;65.55;100317.19;4217788;34;34184;-86
2021/05/09 04:07:09;;;;;;;10.00;5.95;;;;;;;5.33;65.12;100318.22;4229131;33;34702;-96
2021/05/09 04:10:05;;;;;;;12.05;7.22;;;;;;;5.22;65.94;100326.38;4113452;33;35663;-85
2021/05/09 04:12:37;;;;;;;10.35;6.30;;;;;;;5.45;65.34;100324.31;4228351;33;34147;-85
2021/05/09 04:15:10;;;;;;;8.43;5.47;;;;;;;5.52;65.36;100322.75;4218978;34;34564;-85
2021/05/09 04:17:43;;;;;;;11.82;6.40;;;;;;;5.59;65.11;100323.03;4228995;33;33747;-84
2021/05/09 04:20:16;;;;;;;9.52;5.90;;;;;;;5.63;65.98;100325.28;4217541;34;33537;-96
2021/05/09 04:22:50;;;;;;;10.45;7.15;;;;;;;6.08;64.59;100323.00;4215403;34;34821;-95
2021/05/09 04:25:24;;;;;;;10.50;6.53;;;;;;;5.73;65.92;100330.62;4229052;33;34038;-96
2021/05/09 04:28:14;;;;;;;10.23;6.07;;;;;;;5.99;66.08;100328.25;4203552;34;33945;-85
2021/05/09 04:30:47;;;;;;;11.50;6.90;;;;;;;6.16;65.36;100332.03;4229632;33;34531;-85
2021/05/09 04:33:25;;;;;;;11.25;6.70;;;;;;;6.57;64.68;100330.94;4230220;33;34124;-84
2021/05/09 04:36:02;;;;;;;9.93;6.80;;;;;;;6.47;65.62;100333.69;4217605;34;34258;-96
2021/05/09 04:38:34;;;;;;;14.70;7.07;;;;;;;6.34;66.57;100331.31;4231267;33;33335;-85
2021/05/09 04:41:07;;;;;;;12.93;8.02;;;;;;;6.71;65.93;100341.22;4229893;33;34736;-96
2021/05/09 04:43:39;;;;;;;11.88;7.55;;;;;;;7.03;65.22;100330.00;4217267;34;32330;-95
2021/05/09 04:46:13;;;;;;;14.50;9.00;;;;;;;7.24;64.83;100334.28;4219043;34;33763;-85
2021/05/09 04:48:46;;;;;;;14.73;8.85;;;;;;;7.23;65.42;100341.50;4203967;34;33447;-84
2021/05/09 04:51:18;;;;;;;13.32;9.00;;;;;;;7.29;65.76;100355.34;4205746;34;34623;-95
2021/05/09 04:53:52;;;;;;;15.98;9.27;;;;;;;7.71;64.37;100349.37;4218196;34;34050;-95
2021/05/09 04:56:26;;;;;;;16.00;9.38;;;;;;;7.95;64.16;100343.38;4217492;34;34921;-96
2021/05/09 04:58:59;;;;;;;12.43;8.90;;;;;;;7.71;65.12;100354.75;4227585;33;34626;-85
2021/05/09 05:01:32;;;;;;;15.53;8.80;;;;;;;8.18;64.17;100350.94;4190739;33;923043;-85
2021/05/09 05:04:04;;;;;;;14.38;9.25;;;;;;;8.31;63.82;100343.31;4219921;34;33125;-96
2021/05/09 05:06:45;;;;;;;18.83;9.80;;;;;;;8.70;62.94;100355.50;4218917;33;34775;-96
2021/05/09 05:09:42;;;;;;;15.40;10.25;;;;;;;8.96;62.38;100345.53;4216068;33;33993;-96
2021/05/09 05:12:34;;;;;;;17.30;8.98;;;;;;;8.65;63.13;100340.69;4352687;28;34532;-96
2021/05/09 05:15:07;;;;;;;17.90;9.20;;;;;;;9.10;61.92;100345.91;4251842;33;33409;-86
2021/05/09 05:17:40;;;;;;;15.95;10.02;;;;;;;9.41;61.02;100337.25;4257469;33;33711;-84
2021/05/09 05:20:14;;;;;;;13.60;8.77;;;;;;;9.48;60.43;100346.38;4251725;33;32408;-87
2021/05/09 05:22:46;;;;;;;19.00;10.07;;;;;;;9.51;59.64;100348.75;4256101;33;34607;-96
2021/05/09 05:25:19;;;;;;;13.27;9.13;;;;;;;9.81;59.89;100349.13;4247876;33;33393;-95
2021/05/09 05:27:52;;;;;;;16.15;8.98;;;;;;;9.99;57.81;100341.69;4255527;33;34150;-86
2021/05/09 05:30:25;;;;;;;14.57;9.25;;;;;;;10.28;57.08;100345.72;4260795;33;34790;-96
2021/05/09 05:32:59;;;;;;;13.25;8.43;;;;;;;10.25;57.53;100346.06;4241116;33;36450;-96
2021/05/09 05:35:33;;;;;;;13.62;8.55;;;;;;;10.22;56.98;100343.69;4246979;33;33607;-96
2021/05/09 05:38:08;;;;;;;14.13;7.57;;;;;;;10.57;57.05;100344.34;4239906;33;36371;-86
2021/05/09 05:40:40;;;;;;;11.95;6.95;;;;;;;10.65;54.99;100336.22;4263734;33;34687;-86
2021/05/09 05:43:13;;;;;;;13.45;6.70;;;;;;;10.78;54.85;100347.31;4262559;33;33670;-87
2021/05/09 05:45:45;;;;;;;13.43;7.15;;;;;;;10.90;52.08;100346.97;4249017;33;32997;-86
2021/05/09 05:48:19;;;;;;;14.02;6.28;;;;;;;11.24;50.80;100349.34;4255625;33;33712;-84
2021/05/09 05:50:52;;;;;;;13.52;6.80;;;;;;;11.62;49.38;100348.63;4246988;33;33715;-84
2021/05/09 05:53:26;;;;;;;11.10;6.68;;;;;;;11.59;49.48;100344.38;4257600;33;35725;-85
2021/05/09 05:55:58;;;;;;;10.73;5.68;;;;;;;11.60;49.50;100356.06;4246851;33;33178;-84
2021/05/09 05:58:31;;;;;;;14.55;6.65;;;;;;;12.01;48.55;100342.25;4259000;33;34036;-84
2021/05/09 06:01:03;;;;;;;11.38;5.70;;;;;;;12.14;48.67;100347.91;4258002;33;33546;-87
2021/05/09 06:03:36;;;;;;;11.57;5.70;;;;;;;12.06;48.68;100347.12;4258274;33;34207;-86
2021/05/09 06:06:08;;;;;;;12.90;6.10;;;;;;;12.12;47.37;100349.94;4258189;33;34022;-88
2021/05/09 06:08:42;;;;;;;11.45;6.30;;;;;;;12.39;47.19;100342.22;4259230;33;34619;-89
2021/05/09 06:11:15;;;;;;;12.43;6.50;;;;;;;12.15;47.82;100343.31;4246571;33;34348;-85
2021/05/09 06:13:47;;;;;;;9.70;5.53;;;;;;;12.62;46.89;100349.44;4258497;33;33311;-88
2021/05/09 06:16:20;;;;;;;10.73;5.75;;;;;;;12.88;47.05;100346.28;4246797;33;33090;-86
2021/05/09 06:18:55;;;;;;;11.43;5.25;;;;;;;12.92;46.53;100344.03;4249422;33;34404;-91
2021/05/09 06:21:28;;;;;;;11.93;6.12;;;;;;;12.93;45.80;100351.16;4257779;33;33688;-84
2021/05/09 06:24:01;;;;;;;12.00;6.37;;;;;;;12.79;46.27;100347.41;4258892;33;33349;-86
2021/05/09 06:26:33;;;;;;;21.60;7.68;;;;;;;12.83;46.34;100337.84;4258999;33;33204;-86
2021/05/09 06:29:06;;;;;;;11.23;5.50;;;;;;;12.79;46.46;100339.28;4259058;33;33548;-91
2021/05/09 06:31:42;;;;;;;11.68;5.87;;;;;;;12.98;45.71;100340.56;4245082;33;33797;-85
2021/05/09 06:34:21;;;;;;;11.80;5.80;;;;;;;13.81;45.84;100345.72;4256248;33;33225;-87
2021/05/09 06:36:56;;;;;;;9.40;5.00;;;;;;;14.03;44.12;100346.56;4255626;33;33205;-94
2021/05/09 06:39:31;;;;;;;13.75;6.35;;;;;;;13.77;43.26;100345.25;4256114;33;33725;-86
2021/05/09 06:42:04;;;;;;;9.45;5.80;;;;;;;13.95;44.75;100342.94;4244519;33;34755;-87
2021/05/09 06:44:42;;;;;;;10.82;6.07;;;;;;;14.13;45.02;100345.19;4256831;33;34685;-86
2021/05/09 06:47:15;;;;;;;13.07;6.93;;;;;;;14.39;44.67;100338.28;4256682;33;34061;-87
2021/05/09 06:49:48;;;;;;;14.30;6.65;;;;;;;14.55;41.53;100334.44;4257787;33;33721;-88
2021/05/09 06:52:21;;;;;;;14.85;7.15;;;;;;;14.56;43.18;100336.09;4258981;33;34750;-86
2021/05/09 06:54:54;;;;;;;13.77;6.72;;;;;;;14.76;41.24;100336.25;4260777;33;34059;-96
2021/05/09 06:57:31;;;;;;;41.05;28.45;;;;;;;14.98;41.80;100339.72;4248214;33;33971;-96
2021/05/09 07:00:06;;;;;;;14.13;6.97;;;;;;;14.46;41.36;100339.19;4254087;33;34572;-96
2021/05/09 07:02:42;;;;;;;39.13;21.27;;;;;;;15.05;40.44;100336.19;4250909;33;36499;-87
2021/05/09 07:05:15;;;;;;;13.10;6.60;;;;;;;15.26;39.53;100336.06;4255007;33;33650;-86
2021/05/09 07:07:51;;;;;;;18.42;6.95;;;;;;;15.47;39.71;100342.44;4257806;33;33083;-96
2021/05/09 07:10:27;;;;;;;24.83;9.20;;;;;;;15.23;39.40;100336.47;4239847;33;32151;-87
2021/05/09 07:13:00;;;;;;;16.33;6.53;;;;;;;15.28;39.61;100325.78;4254809;33;34759;-87
2021/05/09 07:15:38;;;;;;;13.73;6.15;;;;;;;15.47;37.67;100326.09;4256629;33;34698;-93
2021/05/09 07:18:21;;;;;;;11.30;5.37;;;;;;;15.75;38.18;100322.34;4294613;28;33996;-92
2021/05/09 07:20:57;;;;;;;14.85;6.15;;;;;;;15.60;38.08;100322.53;4268316;33;33662;-87
2021/05/09 07:23:32;;;;;;;17.17;6.15;;;;;;;15.97;37.98;100315.72;4257239;33;33448;-95
2021/05/09 07:26:05;;;;;;;18.00;6.60;;;;;;;16.10;37.30;100330.41;4245349;33;34679;-96
2021/05/09 07:28:38;;;;;;;13.93;5.20;;;;;;;15.89;35.98;100329.53;4234017;33;34052;-87
2021/05/09 07:31:13;;;;;;;12.55;4.80;;;;;;;15.93;35.77;100328.09;4234748;33;34719;-92
2021/05/09 07:33:45;;;;;;;12.98;5.07;;;;;;;15.23;35.64;100325.59;4234233;33;34502;-95
2021/05/09 07:36:22;;;;;;;13.30;4.60;;;;;;;16.21;36.48;100327.03;4235263;33;34347;-91
2021/05/09 07:38:59;;;;;;;12.10;4.37;;;;;;;16.65;34.99;100325.50;4244231;33;36668;-87
2021/05/09 07:41:49;;;;;;;13.57;5.00;;;;;;;16.49;32.70;100323.25;4232454;33;34749;-87
2021/05/09 07:44:22;;;;;;;13.23;4.80;;;;;;;16.05;33.59;100328.31;4232651;33;34704;-93
2021/05/09 07:46:59;;;;;;;13.13;5.05;;;;;;;15.96;34.14;100324.94;4231978;33;32548;-96
2021/05/09 07:49:34;;;;;;;12.88;4.25;;;;;;;16.00;33.42;100331.66;4220245;33;33395;-95
2021/05/09 07:52:09;;;;;;;11.88;4.43;;;;;;;15.54;34.76;100326.94;4241919;33;32995;-88
2021/05/09 07:54:42;;;;;;;10.15;4.45;;;;;;;16.23;35.27;100324.94;4232249;33;34423;-88
2021/05/09 07:57:14;;;;;;;16.30;4.87;;;;;;;16.47;35.94;100325.34;4228331;33;33727;-89
2021/05/09 07:59:47;;;;;;;14.87;5.10;;;;;;;16.57;33.50;100323.00;4229235;33;33194;-91
2021/05/09 08:02:20;;;;;;;17.85;4.43;;;;;;;16.97;32.22;100333.84;4229281;33;33475;-87
2021/05/09 08:04:56;;;;;;;15.32;4.85;;;;;;;17.10;33.91;100330.25;4228914;33;34692;-95
2021/05/09 08:07:32;;;;;;;16.60;4.07;;;;;;;17.35;31.61;100333.06;4230068;33;32702;-94
2021/05/09 08:10:06;;;;;;;15.00;4.72;;;;;;;17.52;31.06;100329.84;4229948;33;33035;-94
2021/05/09 08:12:41;;;;;;;12.30;4.28;;;;;;;17.45;31.70;100336.19;4230449;33;34603;-93
2021/05/09 08:15:22;;;;;;;11.90;4.07;;;;;;;17.39;32.59;100338.94;4228271;33;33539;-95
2021/05/09 08:17:55;;;;;;;12.95;4.72;;;;;;;17.82;31.09;100333.62;4228312;33;34718;-88
2021/05/09 08:20:29;;;;;;;14.75;5.10;;;;;;;18.02;31.07;100331.84;4231985;33;33291;-86
2021/05/09 08:23:01;;;;;;;13.10;5.50;;;;;;;18.00;30.97;100326.59;4230026;33;35503;-90
2021/05/09 08:25:37;;;;;;;14.10;4.60;;;;;;;17.97;30.21;100337.97;4231349;33;34819;-87
2021/05/09 08:28:10;;;;;;;17.10;5.00;;;;;;;18.11;31.08;100336.81;4230478;33;34212;-86
2021/05/09 08:30:44;;;;;;;10.50;4.40;;;;;;;17.67;30.66;100335.00;4231501;33;34187;-87
2021/05/09 08:33:17;;;;;;;10.43;4.50;;;;;;;18.03;29.49;100328.87;4229879;33;33775;-96
2021/05/09 08:36:01;;;;;;;15.57;4.78;;;;;;;17.98;28.19;100342.41;4187937;34;35512;-96
2021/05/09 08:38:34;;;;;;;13.75;4.53;;;;;;;17.73;30.61;100328.66;4222268;33;34223;-92
2021/05/09 08:41:07;;;;;;;14.10;4.95;;;;;;;17.83;31.78;100329.84;4225270;33;33797;-96
2021/05/09 08:43:43;;;;;;;20.58;4.87;;;;;;;17.85;30.38;100326.88;4223653;33;34140;-86
2021/05/09 08:46:23;;;;;;;12.40;3.87;;;;;;;18.28;29.43;100330.78;4215084;34;34778;-96
2021/05/09 08:48:58;;;;;;;14.95;5.22;;;;;;;18.69;31.27;100312.91;4228573;33;35048;-95
2021/05/09 08:51:32;;;;;;;18.27;4.93;;;;;;;18.92;29.84;100325.13;4297208;28;33818;-95
2021/05/09 08:54:05;;;;;;;12.23;4.18;;;;;;;18.74;30.28;100318.53;4243049;33;33608;-87
2021/05/09 08:56:37;;;;;;;15.40;5.25;;;;;;;19.14;29.18;100323.56;4253870;33;33649;-91
2021/05/09 08:59:10;;;;;;;13.30;4.30;;;;;;;19.31;27.74;100320.19;4250230;33;33247;-93
2021/05/09 09:01:47;;;;;;;18.35;5.03;;;;;;;19.10;28.13;100314.16;4323354;28;33498;-94
2021/05/09 09:04:46;;;;;;;14.35;4.68;;;;;;;19.04;29.75;100323.28;4258668;28;34158;-95
2021/05/09 09:07:24;;;;;;;16.85;4.32;;;;;;;19.30;27.76;100324.03;4306807;28;34323;-92
2021/05/09 09:10:01;;;;;;;19.27;5.53;;;;;;;18.86;27.63;100322.22;4346830;28;33001;-87
2021/05/09 09:12:36;;;;;;;13.90;4.82;;;;;;;18.13;28.11;100333.88;4252048;33;34206;-88
2021/05/09 09:15:10;;;;;;;12.20;3.33;;;;;;;18.42;27.84;100329.59;4244655;33;34387;-96
2021/05/09 09:17:47;;;;;;;16.35;5.00;;;;;;;18.62;28.46;100326.69;4234524;33;33613;-96
2021/05/09 09:20:20;;;;;;;20.55;4.90;;;;;;;18.97;28.55;100317.06;4240708;33;33584;-86
2021/05/09 09:23:00;;;;;;;18.73;4.82;;;;;;;19.36;28.26;100325.84;4245429;33;32730;-96
2021/05/09 09:25:34;;;;;;;12.85;3.92;;;;;;;19.43;28.06;100336.69;4244884;33;34402;-94
2021/05/09 09:28:18;;;;;;;11.23;4.05;;;;;;;19.21;25.83;100332.56;4245055;33;34560;-94
2021/05/09 09:30:56;;;;;;;14.45;3.80;;;;;;;18.83;26.51;100321.81;4234632;33;34362;-94
2021/05/09 09:33:50;;;;;;;18.25;4.82;;;;;;;18.01;27.82;100325.53;4222890;33;33063;-94
2021/05/09 09:36:25;;;;;;;9.07;2.55;;;;;;;17.70;28.12;100327.19;4218572;34;33557;-92
2021/05/09 09:39:03;;;;;;;8.88;2.90;;;;;;;18.19;25.85;100322.03;4209948;33;33962;-95
2021/05/09 09:41:47;;;;;;;16.65;3.78;;;;;;;19.01;24.64;100318.25;4220605;33;35251;-96
2021/05/09 09:44:45;;;;;;;16.95;5.18;;;;;;;18.64;26.19;100323.72;4161666;34;33277;-94
2021/05/09 09:47:18;;;;;;;12.82;4.47;;;;;;;18.24;29.13;100329.56;4215630;34;35475;-93
2021/05/09 09:49:52;;;;;;;19.50;4.53;;;;;;;18.76;29.89;100321.03;4215854;34;33236;-94
2021/05/09 09:52:29;;;;;;;13.00;3.72;;;;;;;19.09;30.25;100314.38;4214004;34;33727;-93
2021/05/09 09:55:15;;;;;;;16.55;4.20;;;;;;;19.35;28.87;100324.97;4202839;34;32417;-96
2021/05/09 09:58:01;;;;;;;14.57;4.57;;;;;;;19.18;29.36;100324.78;4215866;33;33222;-87
2021/05/09 10:00:51;;;;;;;15.20;4.25;;;;;;;19.24;28.34;100323.03;4197194;34;33623;-94
2021/05/09 10:03:35;;;;;;;16.05;5.32;;;;;;;19.62;29.12;100315.56;4212844;34;35612;-96
2021/05/09 10:06:32;;;;;;;12.15;3.80;;;;;;;20.26;27.82;100311.19;4204773;34;33081;-96
2021/05/09 10:09:39;;;;;;;15.48;5.10;;;;;;;20.85;26.81;100307.59;4206421;33;34097;-96
2021/05/09 10:12:56;;;;;;;15.27;4.68;;;;;;;20.66;26.90;100300.56;4212800;33;33124;-96
2021/05/09 10:16:26;;;;;;;14.70;4.78;;;;;;;21.03;26.50;100295.59;4189019;34;33123;-96
2021/05/09 10:20:02;;;;;;;14.20;4.22;;;;;;;21.82;26.22;100305.09;4197703;34;20074;-95
2021/05/09 10:23:18;;;;;;;15.20;5.18;;;;;;;21.36;27.74;100293.22;4092354;34;20538;-95
2021/05/09 10:26:06;;;;;;;15.98;4.87;;;;;;;21.09;28.19;100294.66;4203611;34;32611;-96
2021/05/09 10:29:41;;;;;;;13.60;4.60;;;;;;;21.28;28.41;100286.22;4181416;34;33299;-96
2021/05/09 10:32:38;;;;;;;16.08;4.60;;;;;;;22.24;27.33;100277.16;4172905;34;33910;-92
2021/05/09 10:35:15;;;;;;;12.35;4.40;;;;;;;20.82;27.97;100283.34;4198142;34;35640;-93
2021/05/09 10:42:05;;;;;;;12.77;4.03;;;;;;;22.25;26.21;100270.56;4208972;33;32881;-94
2021/05/09 10:45:07;;;;;;;14.32;3.50;;;;;;;21.96;23.27;100275.34;4230546;33;32297;-96
2021/05/09 10:48:22;;;;;;;16.25;4.60;;;;;;;22.51;25.05;100262.72;4210799;34;35266;-91
2021/05/09 10:51:37;;;;;;;13.90;3.90;;;;;;;21.04;25.79;100285.47;4227096;33;34681;-96
2021/05/09 10:54:57;;;;;;;15.07;3.55;;;;;;;21.83;25.81;100260.84;4229190;33;20122;-89
2021/05/09 10:58:04;;;;;;;16.65;4.72;;;;;;;22.13;25.23;100272.59;4233786;33;33531;-94
2021/05/09 11:01:08;;;;;;;13.65;3.95;;;;;;;21.42;24.58;100271.09;4198421;33;33354;-95
2021/05/09 11:04:02;;;;;;;13.03;3.13;;;;;;;22.19;24.01;100275.16;4230988;33;34397;-94
2021/05/09 11:06:52;;;;;;;11.05;3.78;;;;;;;22.24;23.23;100263.41;4232013;33;33775;-94
2021/05/09 11:09:46;;;;;;;10.70;3.00;;;;;;;21.39;24.64;100257.00;4220702;33;32022;-92
2021/05/09 11:13:04;;;;;;;10.98;3.75;;;;;;;21.30;24.26;100256.56;4206701;33;33960;-92
2021/05/09 11:15:40;;;;;;;10.68;3.70;;;;;;;23.38;22.09;100244.50;4199799;33;33962;-92
2021/05/09 11:18:19;;;;;;;17.98;4.22;;;;;;;23.93;22.33;100244.47;4209660;33;33464;-92
2021/05/09 11:20:56;;;;;;;14.73;3.83;;;;;;;24.25;21.32;100244.41;4209235;33;34063;-94
2021/05/09 11:23:44;;;;;;;15.35;3.25;;;;;;;24.44;22.13;100236.50;4205239;34;36326;-94
2021/05/09 11:26:39;;;;;;;13.65;4.00;;;;;;;23.91;22.86;100243.91;4213013;33;32688;-93
2021/05/09 11:29:15;;;;;;;9.93;3.95;;;;;;;24.17;21.48;100246.84;4229333;33;32967;-91
2021/05/09 11:31:57;;;;;;;15.18;4.47;;;;;;;23.10;23.16;100251.09;4225835;33;32232;-92
2021/05/09 11:34:33;;;;;;;11.90;3.92;;;;;;;23.22;23.51;100238.00;4211014;34;33935;-90
2021/05/09 11:37:09;;;;;;;13.20;3.83;;;;;;;24.13;22.56;100228.03;4243279;33;33883;-89
2021/05/09 11:39:41;;;;;;;10.90;4.03;;;;;;;24.62;22.54;100215.06;4219872;33;34607;-92
2021/05/09 11:42:18;;;;;;;15.77;4.35;;;;;;;25.20;23.39;100224.09;4230033;33;33225;-93
2021/05/09 11:44:52;;;;;;;12.88;3.90;;;;;;;25.11;22.00;100214.69;4231508;33;33714;-93
2021/05/09 11:47:31;;;;;;;16.67;4.62;;;;;;;25.99;21.63;100210.09;4227456;33;34766;-93
2021/05/09 11:50:08;;;;;;;12.63;4.03;;;;;;;25.62;21.56;100210.37;4240792;33;34506;-93
2021/05/09 11:52:46;;;;;;;14.82;3.70;;;;;;;26.03;20.83;100213.13;4228735;33;32739;-92
2021/05/09 11:55:19;;;;;;;11.43;4.18;;;;;;;25.59;20.56;100210.94;4228511;33;34775;-94
2021/05/09 11:57:56;;;;;;;10.27;3.97;;;;;;;25.11;22.00;100206.41;4217137;33;34265;-93
2021/05/09 12:00:28;;;;;;;9.63;3.55;;;;;;;25.00;21.31;100204.69;4240410;33;33503;-93
2021/05/09 12:03:04;;;;;;;13.30;3.80;;;;;;;24.95;22.10;100210.22;4236654;33;34185;-93
2021/05/09 12:05:39;;;;;;;9.95;3.92;;;;;;;25.48;21.37;100199.00;4239139;33;33788;-92
2021/05/09 12:08:16;;;;;;;13.82;4.00;;;;;;;25.72;22.23;100204.84;4228404;33;35121;-90
2021/05/09 12:10:49;;;;;;;9.32;4.12;;;;;;;26.48;22.79;100197.50;4242047;33;33615;-90
2021/05/09 12:13:24;;;;;;;10.20;3.85;;;;;;;27.18;20.19;100185.53;4218182;33;33173;-91
2021/05/09 12:15:58;;;;;;;14.70;3.65;;;;;;;26.84;19.72;100191.84;4227652;33;34625;-93
2021/05/09 12:18:31;;;;;;;12.85;3.83;;;;;;;27.02;20.17;100197.84;4227295;33;33889;-91
2021/05/09 12:21:08;;;;;;;9.77;3.80;;;;;;;26.95;18.96;100184.28;4226343;33;33868;-93
2021/05/09 12:23:42;;;;;;;10.95;3.70;;;;;;;26.33;20.05;100184.53;4243226;33;33173;-93